Time;durP1;ratioP1;P1;durP2;ratioP2;P2;SDS_P1;SDS_P2;PMS_P1;PMS_P2;Temp;Humidity;BMP_temperature;BMP_pressure;BME280_temperature;BME280_humidity;BME280_pressure;Samples;Min_cycle;Max_cycle;Signal;HPM_P1;HPM_P2
2023/11/03 00:00:04;;;;;;;2.20;1.20;;;;;;;;;;2611792;54;20531;-75
2023/11/03 00:02:31;;;;;;;3.37;1.23;;;;;;;;;;2611809;54;20399;-76
2023/11/03 00:05:03;;;;;;;4.23;1.50;;;;;;;;;;2611239;54;20448;-76
2023/11/03 00:07:31;;;;;;;5.47;1.30;;;;;;;;;;2611811;54;20549;-76
2023/11/03 00:10:00;;;;;;;2.97;2.10;;;;;;;;;;2611000;54;20412;-76
2023/11/03 00:12:26;;;;;;;2.03;1.03;;;;;;;;;;2610309;47;21011;-76
2023/11/03 00:14:52;;;;;;;2.17;1.30;;;;;;;;;;2612172;54;20413;-76
2023/11/03 00:17:18;;;;;;;4.70;1.13;;;;;;;;;;2611500;47;20414;-77
2023/11/03 00:19:46;;;;;;;8.50;2.03;;;;;;;;;;2611500;54;20447;-76
2023/11/03 00:22:12;;;;;;;5.20;2.20;;;;;;;;;;2609914;47;20415;-74
2023/11/03 00:24:40;;;;;;;5.50;1.50;;;;;;;;;;2611642;54;20557;-75
2023/11/03 00:27:06;;;;;;;3.03;1.50;;;;;;;;;;2612156;54;20418;-75
2023/11/03 00:29:33;;;;;;;2.73;1.60;;;;;;;;;;2609881;39;21286;-76
2023/11/03 00:31:59;;;;;;;5.10;1.50;;;;;;;;;;2610668;39;20499;-76
2023/11/03 00:34:25;;;;;;;6.23;1.80;;;;;;;;;;2609706;47;20439;-75
2023/11/03 00:36:52;;;;;;;6.87;2.20;;;;;;;;;;2612141;54;21261;-76
2023/11/03 00:39:21;;;;;;;4.10;1.40;;;;;;;;;;2610105;54;20506;-76
2023/11/03 00:41:49;;;;;;;2.53;1.40;;;;;;;;;;2610519;47;20548;-75
2023/11/03 00:44:17;;;;;;;1.50;1.10;;;;;;;;;;2612347;54;21038;-76
2023/11/03 00:46:43;;;;;;;1.70;1.27;;;;;;;;;;2611721;47;20455;-77
2023/11/03 00:49:10;;;;;;;5.10;1.87;;;;;;;;;;2612218;54;20407;-74
2023/11/03 00:51:36;;;;;;;7.63;2.10;;;;;;;;;;2611420;54;20425;-76
2023/11/03 00:54:05;;;;;;;4.40;1.87;;;;;;;;;;2611138;54;20400;-77
2023/11/03 00:56:41;;;;;;;2.17;1.27;;;;;;;;;;2610929;54;20435;-77
2023/11/03 00:59:11;;;;;;;2.53;1.40;;;;;;;;;;2611878;54;20419;-77
2023/11/03 01:01:38;;;;;;;7.53;1.63;;;;;;;;;;2611730;54;20407;-77
2023/11/03 01:04:05;;;;;;;1.77;0.90;;;;;;;;;;2610880;47;20515;-76
2023/11/03 01:06:31;;;;;;;4.20;1.27;;;;;;;;;;2611308;54;20973;-78
2023/11/03 01:08:57;;;;;;;1.90;1.30;;;;;;;;;;2610037;54;20519;-78
2023/11/03 01:11:23;;;;;;;2.43;1.20;;;;;;;;;;2610952;47;20430;-78
2023/11/03 01:13:51;;;;;;;2.37;1.37;;;;;;;;;;2610851;47;20420;-77
2023/11/03 01:16:17;;;;;;;1.40;0.93;;;;;;;;;;2611331;31;20908;-77
2023/11/03 01:18:45;;;;;;;3.63;1.37;;;;;;;;;;2611464;54;20431;-77
2023/11/03 01:21:15;;;;;;;3.00;1.53;;;;;;;;;;2611310;54;20985;-78
2023/11/03 01:23:44;;;;;;;2.00;0.80;;;;;;;;;;2611079;54;20420;-76
2023/11/03 01:26:10;;;;;;;4.30;1.60;;;;;;;;;;2611017;39;20798;-77
2023/11/03 01:28:36;;;;;;;4.20;1.37;;;;;;;;;;2609913;46;20515;-77
2023/11/03 01:31:06;;;;;;;3.30;1.37;;;;;;;;;;2610747;54;20489;-77
2023/11/03 01:33:33;;;;;;;5.43;1.10;;;;;;;;;;2609750;47;20416;-78
2023/11/03 01:36:01;;;;;;;2.70;1.13;;;;;;;;;;2609890;47;20432;-78
2023/11/03 01:38:30;;;;;;;2.97;1.13;;;;;;;;;;2610178;54;21504;-76
2023/11/03 01:40:57;;;;;;;3.53;1.07;;;;;;;;;;2612448;47;20466;-78
2023/11/03 01:43:23;;;;;;;5.70;1.33;;;;;;;;;;2610656;47;20443;-74
2023/11/03 01:45:49;;;;;;;5.70;1.40;;;;;;;;;;2608875;54;20454;-75
2023/11/03 01:48:15;;;;;;;3.93;1.20;;;;;;;;;;2609454;54;21400;-74
2023/11/03 01:50:42;;;;;;;4.73;1.60;;;;;;;;;;2609093;54;20412;-77
2023/11/03 01:53:09;;;;;;;4.00;1.53;;;;;;;;;;2611218;54;20462;-75
2023/11/03 01:55:35;;;;;;;3.67;1.47;;;;;;;;;;2611177;54;20937;-76
2023/11/03 01:58:02;;;;;;;3.97;1.53;;;;;;;;;;2611760;39;20771;-75
2023/11/03 02:00:29;;;;;;;2.23;1.13;;;;;;;;;;2609896;54;20423;-74
2023/11/03 02:02:55;;;;;;;4.77;1.43;;;;;;;;;;2612070;54;20443;-75
2023/11/03 02:05:21;;;;;;;2.10;1.50;;;;;;;;;;2609726;47;20427;-75
2023/11/03 02:07:48;;;;;;;2.93;1.43;;;;;;;;;;2608335;54;20438;-75
2023/11/03 02:10:14;;;;;;;1.37;0.90;;;;;;;;;;2608495;47;20417;-75
2023/11/03 02:12:41;;;;;;;3.00;1.40;;;;;;;;;;2609327;54;20418;-74
2023/11/03 02:15:07;;;;;;;4.30;2.17;;;;;;;;;;2608964;54;20482;-76
2023/11/03 02:17:33;;;;;;;1.70;1.37;;;;;;;;;;2610575;54;20814;-76
2023/11/03 02:19:59;;;;;;;2.47;1.30;;;;;;;;;;2610845;39;21253;-74
2023/11/03 02:22:26;;;;;;;3.30;1.10;;;;;;;;;;2608862;47;20436;-75
2023/11/03 02:24:53;;;;;;;3.27;1.60;;;;;;;;;;2609142;54;20437;-75
2023/11/03 02:27:20;;;;;;;2.60;1.30;;;;;;;;;;2608862;54;21059;-75
2023/11/03 02:29:46;;;;;;;1.80;1.43;;;;;;;;;;2609419;54;20426;-75
2023/11/03 02:32:13;;;;;;;2.67;1.27;;;;;;;;;;2609494;49;20420;-75
2023/11/03 02:34:40;;;;;;;2.20;1.40;;;;;;;;;;2609026;54;20465;-75
2023/11/03 02:37:06;;;;;;;3.10;1.80;;;;;;;;;;2609316;54;21246;-75
2023/11/03 02:39:35;;;;;;;4.33;1.60;;;;;;;;;;2609191;54;20413;-76
2023/11/03 02:42:06;;;;;;;2.63;1.57;;;;;;;;;;2612374;39;21236;-75
2023/11/03 02:44:33;;;;;;;5.37;1.87;;;;;;;;;;2610968;54;20457;-76
2023/11/03 02:46:59;;;;;;;3.20;1.50;;;;;;;;;;2609919;54;20466;-76
2023/11/03 02:49:25;;;;;;;2.23;1.50;;;;;;;;;;2610049;47;21151;-75
2023/11/03 02:51:51;;;;;;;3.43;1.80;;;;;;;;;;2610913;54;20391;-75
2023/11/03 02:54:18;;;;;;;2.03;1.33;;;;;;;;;;2611326;54;20415;-76
2023/11/03 02:56:44;;;;;;;2.73;1.50;;;;;;;;;;2610627;47;20418;-75
2023/11/03 02:59:10;;;;;;;2.47;1.50;;;;;;;;;;2610762;46;20558;-75
2023/11/03 03:01:37;;;;;;;4.20;1.37;;;;;;;;;;2609712;54;20429;-76
2023/11/03 03:04:03;;;;;;;1.40;1.27;;;;;;;;;;2610815;39;20940;-77
2023/11/03 03:06:29;;;;;;;3.20;1.47;;;;;;;;;;2611979;54;20477;-76
2023/11/03 03:08:56;;;;;;;2.27;1.60;;;;;;;;;;2611801;47;20450;-75
2023/11/03 03:11:22;;;;;;;4.93;1.87;;;;;;;;;;2611067;54;20435;-75
2023/11/03 03:13:49;;;;;;;2.90;1.77;;;;;;;;;;2611841;54;20422;-76
2023/11/03 03:16:20;;;;;;;2.03;1.67;;;;;;;;;;2609678;54;20403;-76
2023/11/03 03:18:48;;;;;;;2.40;1.33;;;;;;;;;;2608948;47;20438;-75
2023/11/03 03:21:16;;;;;;;3.23;1.70;;;;;;;;;;2610544;47;20969;-74
2023/11/03 03:23:42;;;;;;;4.60;2.07;;;;;;;;;;2610342;54;20443;-74
2023/11/03 03:26:08;;;;;;;1.97;1.50;;;;;;;;;;2609767;49;20419;-75
2023/11/03 03:28:34;;;;;;;2.70;1.50;;;;;;;;;;2610280;54;20427;-74
2023/11/03 03:31:00;;;;;;;5.30;1.87;;;;;;;;;;2609446;54;20423;-74
2023/11/03 03:33:27;;;;;;;2.97;1.60;;;;;;;;;;2609893;54;20430;-75
2023/11/03 03:35:53;;;;;;;4.20;1.93;;;;;;;;;;2609018;54;21266;-74
2023/11/03 03:38:19;;;;;;;3.13;1.90;;;;;;;;;;2609080;54;20407;-75
2023/11/03 03:40:47;;;;;;;2.87;1.70;;;;;;;;;;2610905;54;21057;-76
2023/11/03 03:43:13;;;;;;;5.60;1.90;;;;;;;;;;2609537;54;20520;-74
2023/11/03 03:45:39;;;;;;;1.87;1.70;;;;;;;;;;2608311;54;20933;-74
2023/11/03 03:48:05;;;;;;;5.73;1.83;;;;;;;;;;2609777;54;20454;-76
2023/11/03 03:50:31;;;;;;;3.20;1.70;;;;;;;;;;2611206;54;20411;-74
2023/11/03 03:52:57;;;;;;;3.23;2.20;;;;;;;;;;2610285;31;20919;-74
2023/11/03 03:55:23;;;;;;;4.80;2.50;;;;;;;;;;2609441;46;20509;-77
2023/11/03 03:57:49;;;;;;;5.27;2.30;;;;;;;;;;2609421;54;20435;-75
2023/11/03 04:00:16;;;;;;;4.03;2.23;;;;;;;;;;2608332;54;20473;-77
2023/11/03 04:02:42;;;;;;;4.43;2.70;;;;;;;;;;2608773;54;20422;-76
2023/11/03 04:05:08;;;;;;;4.87;2.40;;;;;;;;;;2609061;54;20421;-75
2023/11/03 04:07:34;;;;;;;4.20;2.50;;;;;;;;;;2608449;54;21012;-76
2023/11/03 04:10:00;;;;;;;3.10;2.43;;;;;;;;;;2608220;47;20432;-75
2023/11/03 04:12:26;;;;;;;4.30;2.53;;;;;;;;;;2608846;54;20444;-75
2023/11/03 04:14:52;;;;;;;3.77;2.93;;;;;;;;;;2609794;39;20931;-75
2023/11/03 04:17:18;;;;;;;2.90;2.23;;;;;;;;;;2610759;54;20406;-76
2023/11/03 04:19:44;;;;;;;4.47;2.73;;;;;;;;;;2610653;54;20475;-76
2023/11/03 04:22:11;;;;;;;5.37;2.00;;;;;;;;;;2610374;47;20966;-75
2023/11/03 04:24:37;;;;;;;2.83;2.20;;;;;;;;;;2612933;54;20972;-76
2023/11/03 04:27:03;;;;;;;4.27;2.90;;;;;;;;;;2612844;54;20411;-76
2023/11/03 04:29:29;;;;;;;3.13;2.50;;;;;;;;;;2612090;39;20858;-76
2023/11/03 04:31:55;;;;;;;2.30;2.10;;;;;;;;;;2609000;54;20411;-75
2023/11/03 04:34:21;;;;;;;3.20;2.70;;;;;;;;;;2608397;47;20423;-76
2023/11/03 04:36:47;;;;;;;4.57;2.50;;;;;;;;;;2609079;54;20462;-74
2023/11/03 04:39:14;;;;;;;3.80;2.73;;;;;;;;;;2609977;47;20431;-73
2023/11/03 04:41:41;;;;;;;6.30;2.30;;;;;;;;;;2609946;39;20909;-74
2023/11/03 04:44:07;;;;;;;2.97;2.27;;;;;;;;;;2609392;54;20399;-76
2023/11/03 04:46:33;;;;;;;7.50;3.10;;;;;;;;;;2608220;54;20411;-75
2023/11/03 04:48:59;;;;;;;9.33;3.50;;;;;;;;;;2609492;54;20426;-77
2023/11/03 04:51:28;;;;;;;2.53;2.33;;;;;;;;;;2609215;54;20434;-75
2023/11/03 04:53:55;;;;;;;4.40;2.90;;;;;;;;;;2609350;54;20403;-77
2023/11/03 04:56:21;;;;;;;2.90;2.37;;;;;;;;;;2610653;39;20784;-75
2023/11/03 04:58:48;;;;;;;2.83;2.43;;;;;;;;;;2609047;54;20427;-76
2023/11/03 05:01:14;;;;;;;2.13;1.90;;;;;;;;;;2609163;54;20542;-74
2023/11/03 05:03:40;;;;;;;12.43;3.07;;;;;;;;;;2609812;54;21388;-75
2023/11/03 05:06:06;;;;;;;5.40;2.97;;;;;;;;;;2609626;54;20420;-73
2023/11/03 05:08:32;;;;;;;5.23;2.80;;;;;;;;;;2609547;39;20987;-73
2023/11/03 05:10:59;;;;;;;5.03;2.53;;;;;;;;;;2607300;47;20438;-74
2023/11/03 05:13:25;;;;;;;3.20;2.83;;;;;;;;;;2608991;54;20427;-75
2023/11/03 05:15:51;;;;;;;4.97;2.47;;;;;;;;;;2608474;54;20418;-76
2023/11/03 05:18:17;;;;;;;12.63;3.60;;;;;;;;;;2610178;47;20995;-76
2023/11/03 05:20:43;;;;;;;4.70;3.17;;;;;;;;;;2610816;54;20399;-77
2023/11/03 05:23:11;;;;;;;8.50;3.47;;;;;;;;;;2610679;54;20987;-75
2023/11/03 05:25:38;;;;;;;7.70;3.20;;;;;;;;;;2609736;54;20431;-76
2023/11/03 05:28:04;;;;;;;7.43;3.27;;;;;;;;;;2608777;46;20478;-75
2023/11/03 05:30:31;;;;;;;8.63;3.47;;;;;;;;;;2610502;54;20437;-76
2023/11/03 05:32:57;;;;;;;3.63;2.97;;;;;;;;;;2612104;54;20508;-77
2023/11/03 05:35:23;;;;;;;2.83;2.60;;;;;;;;;;2610009;54;20996;-76
2023/11/03 05:37:51;;;;;;;6.30;3.70;;;;;;;;;;2611604;39;20787;-76
2023/11/03 05:40:18;;;;;;;4.47;3.13;;;;;;;;;;2612212;39;20790;-76
2023/11/03 05:42:45;;;;;;;6.13;2.97;;;;;;;;;;2610388;54;20426;-76
2023/11/03 05:45:11;;;;;;;7.03;2.83;;;;;;;;;;2610989;54;20438;-75
2023/11/03 05:47:38;;;;;;;9.70;2.93;;;;;;;;;;2609895;39;20496;-76
2023/11/03 05:50:05;;;;;;;5.13;3.00;;;;;;;;;;2610428;54;20399;-76
2023/11/03 05:52:31;;;;;;;11.27;3.23;;;;;;;;;;2609636;54;20531;-76
2023/11/03 05:54:58;;;;;;;5.07;3.40;;;;;;;;;;2610973;54;20487;-77
2023/11/03 05:57:24;;;;;;;9.77;3.30;;;;;;;;;;2610433;54;20542;-77
2023/11/03 05:59:50;;;;;;;3.63;3.10;;;;;;;;;;2609626;54;21036;-76
2023/11/03 06:02:18;;;;;;;7.17;3.87;;;;;;;;;;2610404;39;20797;-76
2023/11/03 06:04:44;;;;;;;6.47;3.40;;;;;;;;;;2609837;54;20426;-75
2023/11/03 06:07:11;;;;;;;11.83;4.10;;;;;;;;;;2612208;39;21024;-76
2023/11/03 06:09:38;;;;;;;4.73;3.07;;;;;;;;;;2611255;46;20446;-76
2023/11/03 06:12:04;;;;;;;11.90;4.53;;;;;;;;;;2613467;54;20423;-76
2023/11/03 06:14:30;;;;;;;12.40;4.83;;;;;;;;;;2612378;46;20522;-76
2023/11/03 06:16:56;;;;;;;8.20;3.47;;;;;;;;;;2612505;47;20430;-79
2023/11/03 06:19:24;;;;;;;5.43;3.90;;;;;;;;;;2611924;54;20435;-74
2023/11/03 06:21:51;;;;;;;3.83;3.10;;;;;;;;;;2612710;54;21028;-76
2023/11/03 06:24:17;;;;;;;5.93;3.23;;;;;;;;;;2612352;46;20434;-80
2023/11/03 06:26:44;;;;;;;8.43;3.33;;;;;;;;;;2611302;47;20430;-80
2023/11/03 06:29:10;;;;;;;3.20;2.90;;;;;;;;;;2613446;54;20417;-75
2023/11/03 06:31:37;;;;;;;7.73;4.13;;;;;;;;;;2613366;54;20436;-75
2023/11/03 06:34:03;;;;;;;8.17;3.57;;;;;;;;;;2611727;47;20467;-77
2023/11/03 06:36:29;;;;;;;9.73;4.53;;;;;;;;;;2612271;39;20975;-75
2023/11/03 06:38:55;;;;;;;5.47;2.80;;;;;;;;;;2611551;54;20454;-75
2023/11/03 06:41:20;;;;;;;7.43;3.10;;;;;;;;;;2612369;39;20881;-76
2023/11/03 06:43:48;;;;;;;6.13;3.83;;;;;;;;;;2612499;54;20420;-75
2023/11/03 06:46:16;;;;;;;10.77;4.00;;;;;;;;;;2612129;54;20446;-76
2023/11/03 06:48:43;;;;;;;3.53;3.23;;;;;;;;;;2613645;54;20431;-78
2023/11/03 06:51:10;;;;;;;6.37;2.97;;;;;;;;;;2613687;54;20416;-76
2023/11/03 06:53:36;;;;;;;9.50;3.07;;;;;;;;;;2610636;54;20523;-76
2023/11/03 06:56:03;;;;;;;4.33;2.80;;;;;;;;;;2611805;31;20877;-77
2023/11/03 06:58:29;;;;;;;5.60;3.30;;;;;;;;;;2612528;54;20416;-78
2023/11/03 07:00:55;;;;;;;7.60;3.40;;;;;;;;;;2611887;47;20458;-77
2023/11/03 07:03:22;;;;;;;8.60;3.70;;;;;;;;;;2612937;54;20407;-77
2023/11/03 07:05:49;;;;;;;5.10;2.90;;;;;;;;;;2613669;54;20435;-78
2023/11/03 07:08:16;;;;;;;9.07;3.73;;;;;;;;;;2612676;47;20427;-76
2023/11/03 07:10:44;;;;;;;9.90;4.00;;;;;;;;;;2612602;54;20555;-76
2023/11/03 07:13:11;;;;;;;10.37;3.83;;;;;;;;;;2611946;54;20420;-76
2023/11/03 07:15:37;;;;;;;6.23;3.57;;;;;;;;;;2612164;47;20426;-77
2023/11/03 07:18:03;;;;;;;5.93;3.67;;;;;;;;;;2611764;39;20497;-76
2023/11/03 07:20:30;;;;;;;9.83;3.70;;;;;;;;;;2612468;54;20498;-76
2023/11/03 07:22:57;;;;;;;6.70;3.60;;;;;;;;;;2612728;47;20515;-76
2023/11/03 07:25:26;;;;;;;8.93;3.43;;;;;;;;;;2611598;47;20523;-77
2023/11/03 07:27:52;;;;;;;4.80;3.37;;;;;;;;;;2613542;54;21040;-76
2023/11/03 07:30:19;;;;;;;10.17;4.27;;;;;;;;;;2613187;54;20981;-75
2023/11/03 07:32:46;;;;;;;4.33;3.80;;;;;;;;;;2613717;54;20419;-76
2023/11/03 07:35:13;;;;;;;5.40;3.03;;;;;;;;;;2614881;54;20988;-76
2023/11/03 07:37:42;;;;;;;6.03;3.67;;;;;;;;;;2613668;54;20443;-77
2023/11/03 07:40:10;;;;;;;3.20;2.90;;;;;;;;;;2614024;54;20453;-77
2023/11/03 07:42:38;;;;;;;6.57;3.43;;;;;;;;;;2614606;54;20419;-78
2023/11/03 07:45:04;;;;;;;7.70;3.33;;;;;;;;;;2613934;39;20814;-77
2023/11/03 07:47:32;;;;;;;7.70;4.00;;;;;;;;;;2613315;54;20412;-76
2023/11/03 07:49:58;;;;;;;15.93;4.00;;;;;;;;;;2612990;47;20527;-77
2023/11/03 07:52:24;;;;;;;3.80;2.63;;;;;;;;;;2613251;54;20437;-77
2023/11/03 07:54:51;;;;;;;10.33;3.63;;;;;;;;;;2613530;54;20424;-73
2023/11/03 07:57:17;;;;;;;3.87;3.40;;;;;;;;;;2610855;54;20434;-76
2023/11/03 07:59:43;;;;;;;2.90;2.70;;;;;;;;;;2609144;39;20786;-76
2023/11/03 08:02:09;;;;;;;6.07;3.20;;;;;;;;;;2610922;54;20511;-76
2023/11/03 08:04:36;;;;;;;4.10;3.40;;;;;;;;;;2611490;46;20474;-76
2023/11/03 08:07:02;;;;;;;7.10;6.50;;;;;;;;;;2611648;54;20427;-75
2023/11/03 08:09:30;;;;;;;6.60;3.60;;;;;;;;;;2611386;54;20438;-77
2023/11/03 08:11:57;;;;;;;4.00;3.70;;;;;;;;;;2612789;54;20481;-76
2023/11/03 08:14:24;;;;;;;10.13;4.70;;;;;;;;;;2611374;47;20430;-75
2023/11/03 08:16:50;;;;;;;6.30;3.97;;;;;;;;;;2610570;54;20407;-73
2023/11/03 08:19:16;;;;;;;8.80;3.83;;;;;;;;;;2610626;54;20416;-77
2023/11/03 08:21:42;;;;;;;8.13;4.00;;;;;;;;;;2611192;54;20440;-76
2023/11/03 08:24:14;;;;;;;6.83;3.90;;;;;;;;;;2609681;47;20454;-74
2023/11/03 08:26:40;;;;;;;8.03;3.70;;;;;;;;;;2609809;54;20742;-73
2023/11/03 08:29:10;;;;;;;3.73;3.33;;;;;;;;;;2609952;54;20424;-73
2023/11/03 08:31:36;;;;;;;12.77;3.93;;;;;;;;;;2610430;54;20394;-75
2023/11/03 08:34:04;;;;;;;8.20;3.87;;;;;;;;;;2610469;54;20387;-74
2023/11/03 08:36:31;;;;;;;10.27;4.07;;;;;;;;;;2610432;39;20764;-75
2023/11/03 08:38:59;;;;;;;4.53;3.33;;;;;;;;;;2610418;54;20936;-74
2023/11/03 08:41:26;;;;;;;10.10;5.10;;;;;;;;;;2609952;54;20442;-72
2023/11/03 08:43:53;;;;;;;6.63;3.80;;;;;;;;;;2609906;54;20407;-73
2023/11/03 08:46:19;;;;;;;6.93;4.30;;;;;;;;;;2609633;54;20391;-74
2023/11/03 08:48:45;;;;;;;4.87;4.47;;;;;;;;;;2609840;54;20384;-72
2023/11/03 08:51:12;;;;;;;7.20;4.60;;;;;;;;;;2609572;54;20422;-74
2023/11/03 08:53:38;;;;;;;11.43;5.13;;;;;;;;;;2609515;54;20590;-72
2023/11/03 08:56:04;;;;;;;6.80;4.90;;;;;;;;;;2609428;39;20908;-72
2023/11/03 08:58:31;;;;;;;8.33;4.20;;;;;;;;;;2610873;54;20424;-74
2023/11/03 09:00:57;;;;;;;6.73;4.50;;;;;;;;;;2612226;54;20447;-75
2023/11/03 09:03:24;;;;;;;10.40;4.63;;;;;;;;;;2609881;54;20419;-72
2023/11/03 09:05:50;;;;;;;11.10;4.43;;;;;;;;;;2608309;47;20427;-75
2023/11/03 09:08:16;;;;;;;8.73;4.70;;;;;;;;;;2608960;54;20422;-75
2023/11/03 09:10:42;;;;;;;5.43;5.03;;;;;;;;;;2609815;54;20419;-76
2023/11/03 09:13:08;;;;;;;8.30;4.20;;;;;;;;;;2610976;54;20412;-74
2023/11/03 09:15:34;;;;;;;5.47;4.37;;;;;;;;;;2609252;54;20408;-73
2023/11/03 09:18:00;;;;;;;7.87;5.00;;;;;;;;;;2609885;54;20417;-72
2023/11/03 09:20:29;;;;;;;4.00;3.60;;;;;;;;;;2609407;54;20396;-75
2023/11/03 09:22:55;;;;;;;6.37;4.23;;;;;;;;;;2608494;47;20395;-75
2023/11/03 09:25:22;;;;;;;7.80;4.60;;;;;;;;;;2610607;39;20923;-75
2023/11/03 09:27:48;;;;;;;5.90;3.87;;;;;;;;;;2611039;54;20411;-75
2023/11/03 09:30:15;;;;;;;8.70;3.97;;;;;;;;;;2610890;54;20992;-75
2023/11/03 09:32:42;;;;;;;9.50;4.70;;;;;;;;;;2610482;54;20457;-75
2023/11/03 09:35:10;;;;;;;9.70;3.90;;;;;;;;;;2611993;47;20404;-75
2023/11/03 09:37:36;;;;;;;8.60;3.93;;;;;;;;;;2611594;54;20965;-74
2023/11/03 09:40:03;;;;;;;6.80;4.03;;;;;;;;;;2612532;39;20807;-76
2023/11/03 09:42:30;;;;;;;14.03;4.87;;;;;;;;;;2612451;46;20555;-74
2023/11/03 09:44:57;;;;;;;9.23;4.63;;;;;;;;;;2612352;54;20601;-76
2023/11/03 09:47:25;;;;;;;6.43;3.87;;;;;;;;;;2611876;54;21016;-75
2023/11/03 09:49:55;;;;;;;9.40;3.90;;;;;;;;;;2611241;39;20929;-75
2023/11/03 09:52:23;;;;;;;7.10;4.03;;;;;;;;;;2610896;39;20830;-76
2023/11/03 09:54:51;;;;;;;5.90;4.13;;;;;;;;;;2612702;39;20567;-74
2023/11/03 09:57:18;;;;;;;9.37;4.33;;;;;;;;;;2609542;54;20406;-73
2023/11/03 09:59:44;;;;;;;7.63;4.00;;;;;;;;;;2609789;54;20455;-76
2023/11/03 10:02:18;;;;;;;10.23;4.63;;;;;;;;;;2607767;54;20423;-74
2023/11/03 10:04:45;;;;;;;9.50;5.00;;;;;;;;;;2608900;47;20471;-74
2023/11/03 10:07:13;;;;;;;13.83;4.60;;;;;;;;;;2610193;54;20400;-74
2023/11/03 10:09:40;;;;;;;13.10;5.20;;;;;;;;;;2608746;54;20941;-73
2023/11/03 10:12:17;;;;;;;10.80;5.27;;;;;;;;;;2608894;54;20459;-74
2023/11/03 10:14:46;;;;;;;6.60;4.43;;;;;;;;;;2608954;54;21544;-75
2023/11/03 10:17:14;;;;;;;4.60;4.20;;;;;;;;;;2608430;54;20427;-75
2023/11/03 10:19:41;;;;;;;9.53;4.63;;;;;;;;;;2608438;54;20408;-75
2023/11/03 10:22:10;;;;;;;7.17;5.13;;;;;;;;;;2608338;47;20443;-73
2023/11/03 10:24:37;;;;;;;9.97;4.77;;;;;;;;;;2607943;54;20431;-73
2023/11/03 10:27:03;;;;;;;7.13;5.33;;;;;;;;;;2609402;54;20422;-74
2023/11/03 10:29:30;;;;;;;5.57;5.07;;;;;;;;;;2609247;54;20440;-74
2023/11/03 10:31:56;;;;;;;17.93;6.17;;;;;;;;;;2608409;54;20438;-73
2023/11/03 10:34:24;;;;;;;8.20;4.83;;;;;;;;;;2607946;47;20972;-73
2023/11/03 10:36:51;;;;;;;9.47;6.37;;;;;;;;;;2612027;54;21049;-76
2023/11/03 10:39:18;;;;;;;7.83;5.23;;;;;;;;;;2612407;54;20423;-75
2023/11/03 10:41:46;;;;;;;8.87;5.60;;;;;;;;;;2612922;47;21541;-76
2023/11/03 10:44:16;;;;;;;10.60;5.27;;;;;;;;;;2611995;54;20428;-76
2023/11/03 10:46:45;;;;;;;10.07;6.93;;;;;;;;;;2612527;39;20790;-76
2023/11/03 10:49:34;;;;;;;6.43;5.83;;;;;;;;;;2612682;54;20439;-76
2023/11/03 10:52:19;;;;;;;7.57;6.17;;;;;;;;;;2612684;54;20423;-75
2023/11/03 10:55:00;;;;;;;13.80;6.33;;;;;;;;;;2612170;47;20446;-74
2023/11/03 10:57:26;;;;;;;10.30;6.23;;;;;;;;;;2612693;54;20427;-75
2023/11/03 11:00:09;;;;;;;8.27;6.33;;;;;;;;;;2611886;54;20440;-76
2023/11/03 11:02:43;;;;;;;8.50;5.50;;;;;;;;;;2611028;54;20411;-76
2023/11/03 11:05:16;;;;;;;6.03;5.40;;;;;;;;;;2610227;54;20414;-76
2023/11/03 11:07:45;;;;;;;7.43;6.67;;;;;;;;;;2608031;54;20400;-76
2023/11/03 11:10:13;;;;;;;8.40;6.63;;;;;;;;;;2609346;54;20424;-76
2023/11/03 11:12:46;;;;;;;9.97;6.80;;;;;;;;;;2609661;54;21323;-74
2023/11/03 11:15:17;;;;;;;8.43;5.33;;;;;;;;;;2609107;54;20547;-76
2023/11/03 11:17:45;;;;;;;8.93;6.40;;;;;;;;;;2608750;39;20911;-75
2023/11/03 11:20:16;;;;;;;14.57;7.87;;;;;;;;;;2610678;54;20406;-74
2023/11/03 11:22:42;;;;;;;11.03;6.20;;;;;;;;;;2608855;54;20449;-76
2023/11/03 11:25:11;;;;;;;10.63;6.93;;;;;;;;;;2610480;54;21123;-75
2023/11/03 11:27:38;;;;;;;6.50;5.90;;;;;;;;;;2609247;47;20411;-76
2023/11/03 11:30:14;;;;;;;7.33;5.67;;;;;;;;;;2609494;54;20416;-74
2023/11/03 11:32:50;;;;;;;6.80;6.20;;;;;;;;;;2608998;50;20422;-75
2023/11/03 11:35:19;;;;;;;11.83;5.43;;;;;;;;;;2609419;47;20763;-74
2023/11/03 11:37:45;;;;;;;10.83;6.13;;;;;;;;;;2609588;54;21038;-75
2023/11/03 11:40:12;;;;;;;10.83;7.03;;;;;;;;;;2609754;54;20438;-73
2023/11/03 11:42:43;;;;;;;11.73;6.67;;;;;;;;;;2608637;54;20439;-74
2023/11/03 11:45:14;;;;;;;9.90;6.93;;;;;;;;;;2608024;39;20793;-74
2023/11/03 11:47:44;;;;;;;7.37;6.70;;;;;;;;;;2609528;54;20922;-75
2023/11/03 11:50:11;;;;;;;10.03;5.90;;;;;;;;;;2609222;54;20527;-74
2023/11/03 11:52:40;;;;;;;11.10;7.00;;;;;;;;;;2611001;54;20419;-74
2023/11/03 11:55:09;;;;;;;8.57;7.10;;;;;;;;;;2609385;54;20395;-74
2023/11/03 11:57:37;;;;;;;7.57;6.50;;;;;;;;;;2609952;54;20383;-73
2023/11/03 12:00:04;;;;;;;15.40;6.87;;;;;;;;;;2606017;51;20466;-73
2023/11/03 12:02:33;;;;;;;10.53;7.33;;;;;;;;;;2607307;47;20428;-75
2023/11/03 12:04:59;;;;;;;7.67;6.07;;;;;;;;;;2608625;54;20414;-73
2023/11/03 12:07:30;;;;;;;6.00;5.60;;;;;;;;;;2608801;47;20412;-73
2023/11/03 12:09:57;;;;;;;7.50;6.80;;;;;;;;;;2610781;39;20794;-74
2023/11/03 12:12:23;;;;;;;7.30;6.40;;;;;;;;;;2610367;54;20415;-74
2023/11/03 12:14:50;;;;;;;12.20;6.60;;;;;;;;;;2609445;54;21227;-75
2023/11/03 12:17:16;;;;;;;14.50;7.67;;;;;;;;;;2608891;54;20410;-74
2023/11/03 12:19:47;;;;;;;7.37;6.30;;;;;;;;;;2611880;54;20526;-74
2023/11/03 12:22:20;;;;;;;8.60;6.10;;;;;;;;;;2609555;54;20399;-73
2023/11/03 12:24:47;;;;;;;7.33;5.80;;;;;;;;;;2609760;47;20503;-75
2023/11/03 12:27:13;;;;;;;7.00;5.87;;;;;;;;;;2610658;54;20906;-74
2023/11/03 12:29:40;;;;;;;9.90;5.90;;;;;;;;;;2611517;54;20402;-74
2023/11/03 12:32:06;;;;;;;6.57;5.40;;;;;;;;;;2607458;54;20506;-73
2023/11/03 12:34:33;;;;;;;8.97;6.70;;;;;;;;;;2607777;54;21064;-74
2023/11/03 12:37:00;;;;;;;6.13;5.63;;;;;;;;;;2607966;47;20411;-75
2023/11/03 12:39:26;;;;;;;7.50;6.73;;;;;;;;;;2609315;54;20515;-73
2023/11/03 12:42:02;;;;;;;5.17;4.67;;;;;;;;;;2609280;54;20427;-75
2023/11/03 12:44:31;;;;;;;7.70;6.03;;;;;;;;;;2609610;54;20489;-73
2023/11/03 12:46:57;;;;;;;7.07;5.60;;;;;;;;;;2610783;31;20902;-75
2023/11/03 12:49:23;;;;;;;10.20;5.60;;;;;;;;;;2611432;54;20527;-72
2023/11/03 12:51:50;;;;;;;6.87;6.20;;;;;;;;;;2611467;54;20416;-75
2023/11/03 12:54:16;;;;;;;5.80;5.30;;;;;;;;;;2610903;54;20515;-73
2023/11/03 12:56:53;;;;;;;8.10;5.60;;;;;;;;;;2610131;47;20415;-73
2023/11/03 12:59:21;;;;;;;6.83;6.00;;;;;;;;;;2608617;54;20431;-75
2023/11/03 13:01:47;;;;;;;5.13;4.83;;;;;;;;;;2609769;54;20418;-78
2023/11/03 13:04:13;;;;;;;12.13;5.30;;;;;;;;;;2611168;54;20411;-75
2023/11/03 13:06:42;;;;;;;6.40;5.80;;;;;;;;;;2609850;47;20407;-75
2023/11/03 13:09:13;;;;;;;11.80;5.47;;;;;;;;;;2610189;54;20419;-76
2023/11/03 13:11:42;;;;;;;7.90;6.17;;;;;;;;;;2611372;39;21137;-75
2023/11/03 13:14:09;;;;;;;8.97;6.10;;;;;;;;;;2610794;54;20423;-75
2023/11/03 13:16:36;;;;;;;6.60;6.10;;;;;;;;;;2609058;54;20527;-75
2023/11/03 13:19:02;;;;;;;8.37;6.60;;;;;;;;;;2607592;47;21067;-75
2023/11/03 13:21:29;;;;;;;11.90;6.70;;;;;;;;;;2608812;54;20420;-74
2023/11/03 13:23:56;;;;;;;11.07;6.70;;;;;;;;;;2608199;54;20451;-74
2023/11/03 13:26:22;;;;;;;9.67;7.47;;;;;;;;;;2607278;54;20472;-75
2023/11/03 13:28:48;;;;;;;7.63;6.93;;;;;;;;;;2607498;54;20957;-74
2023/11/03 13:31:14;;;;;;;6.30;5.73;;;;;;;;;;2608140;54;20450;-75
2023/11/03 13:33:40;;;;;;;7.63;6.90;;;;;;;;;;2605794;54;20424;-75
2023/11/03 13:36:11;;;;;;;12.00;5.63;;;;;;;;;;2604498;54;20525;-74
2023/11/03 13:38:40;;;;;;;6.60;5.97;;;;;;;;;;2608298;39;20822;-75
2023/11/03 13:41:06;;;;;;;6.77;6.37;;;;;;;;;;2607029;54;20446;-75
2023/11/03 13:43:34;;;;;;;6.30;5.80;;;;;;;;;;2608501;54;20414;-74
2023/11/03 13:46:00;;;;;;;7.63;6.83;;;;;;;;;;2607246;51;20965;-74
2023/11/03 13:48:26;;;;;;;7.23;6.53;;;;;;;;;;2609417;54;20404;-76
2023/11/03 13:50:52;;;;;;;6.63;6.00;;;;;;;;;;2607558;54;20416;-75
2023/11/03 13:53:18;;;;;;;9.70;6.23;;;;;;;;;;2607445;39;20736;-74
2023/11/03 13:55:44;;;;;;;7.60;7.00;;;;;;;;;;2607541;54;20462;-75
2023/11/03 13:58:11;;;;;;;5.87;5.40;;;;;;;;;;2607770;54;20404;-76
2023/11/03 14:00:37;;;;;;;6.83;6.23;;;;;;;;;;2607149;39;20804;-74
2023/11/03 14:03:05;;;;;;;7.13;6.37;;;;;;;;;;2607508;39;20821;-75
2023/11/03 14:05:31;;;;;;;6.43;5.97;;;;;;;;;;2606621;51;20396;-75
2023/11/03 14:07:58;;;;;;;6.57;5.97;;;;;;;;;;2610815;39;20784;-77
2023/11/03 14:10:24;;;;;;;6.50;5.90;;;;;;;;;;2613049;54;20404;-76
2023/11/03 14:12:50;;;;;;;9.13;6.33;;;;;;;;;;2612904;54;20426;-76
2023/11/03 14:15:18;;;;;;;7.10;6.13;;;;;;;;;;2614200;54;20411;-76
2023/11/03 14:17:45;;;;;;;18.93;6.90;;;;;;;;;;2613257;54;20445;-76
2023/11/03 14:20:13;;;;;;;6.90;6.17;;;;;;;;;;2612293;47;20447;-76
2023/11/03 14:22:42;;;;;;;13.40;6.90;;;;;;;;;;2613050;54;21029;-77
2023/11/03 14:25:09;;;;;;;7.00;6.50;;;;;;;;;;2613121;54;20427;-77
2023/11/03 14:27:38;;;;;;;10.10;6.63;;;;;;;;;;2612694;54;20427;-76
2023/11/03 14:30:11;;;;;;;7.17;6.30;;;;;;;;;;2611876;54;20833;-76
2023/11/03 14:32:37;;;;;;;6.80;6.13;;;;;;;;;;2612671;47;20427;-76
2023/11/03 14:35:08;;;;;;;6.97;6.27;;;;;;;;;;2614297;39;20894;-76
2023/11/03 14:37:34;;;;;;;6.43;5.60;;;;;;;;;;2613785;54;20386;-76
2023/11/03 14:40:00;;;;;;;7.67;7.13;;;;;;;;;;2613576;54;20454;-76